Time;durP1;ratioP1;P1;durP2;ratioP2;P2;SDS_P1;SDS_P2;PMS_P1;PMS_P2;Temp;Humidity;BMP_temperature;BMP_pressure;BME280_temperature;BME280_humidity;BME280_pressure;Samples;Min_cycle;Max_cycle;Signal;HPM_P1;HPM_P2
2022/05/07 00:02:18;;;;;;;0.50;0.50;;;;;;;7.47;41.01;100188.06;4934825;29;20155;-86
2022/05/07 00:04:46;;;;;;;0.50;0.50;;;;;;;7.45;41.14;100185.59;4917628;29;20052;-86
2022/05/07 00:07:13;;;;;;;0.50;0.50;;;;;;;7.33;41.10;100182.59;4934972;29;20142;-86
2022/05/07 00:09:41;;;;;;;0.50;0.50;;;;;;;7.32;41.13;100164.84;4934794;29;20514;-86
2022/05/07 00:12:09;;;;;;;0.40;0.40;;;;;;;7.42;41.42;100182.44;4934857;29;20095;-85
2022/05/07 00:14:37;;;;;;;0.40;0.40;;;;;;;7.35;41.46;100185.94;4917845;29;20138;-86
2022/05/07 00:19:50;;;;;;;0.50;0.50;;;;;;;7.32;41.35;100189.00;4920405;29;20059;-88
2022/05/07 00:22:17;;;;;;;0.50;0.50;;;;;;;7.31;41.62;100192.69;4936067;29;20140;-88
2022/05/07 00:24:44;;;;;;;0.50;0.50;;;;;;;7.11;41.57;100168.38;4939046;29;20543;-86
2022/05/07 00:27:13;;;;;;;0.50;0.50;;;;;;;7.26;41.48;100187.09;4942609;29;20550;-86
2022/05/07 00:29:41;;;;;;;0.50;0.50;;;;;;;7.22;41.84;100185.84;4917145;29;20071;-85
2022/05/07 00:32:10;;;;;;;0.50;0.50;;;;;;;7.21;41.76;100183.31;4917346;29;20519;-86
2022/05/07 00:34:38;;;;;;;0.55;0.55;;;;;;;7.19;42.20;100188.06;4933932;29;20048;-85
2022/05/07 00:37:05;;;;;;;0.60;0.60;;;;;;;7.12;42.09;100196.06;4901036;29;20147;-86
2022/05/07 00:39:33;;;;;;;0.50;0.50;;;;;;;7.12;42.09;100185.34;4934928;29;20047;-87
2022/05/07 00:42:04;;;;;;;0.50;0.50;;;;;;;7.14;42.14;100189.50;4934206;29;20052;-86
2022/05/07 00:44:32;;;;;;;0.52;0.52;;;;;;;7.16;42.16;100198.19;4934380;29;20497;-86
2022/05/07 00:47:11;;;;;;;0.50;0.50;;;;;;;7.16;42.33;100190.13;4933683;29;20555;-86
2022/05/07 00:49:40;;;;;;;0.50;0.50;;;;;;;7.17;42.35;100193.63;4916781;29;20099;-85
2022/05/07 00:52:07;;;;;;;0.50;0.50;;;;;;;7.02;42.16;100171.41;4918420;29;20130;-88
2022/05/07 00:54:35;;;;;;;0.40;0.40;;;;;;;7.14;41.92;100177.88;4918616;29;20047;-85
2022/05/07 00:57:04;;;;;;;0.50;0.50;;;;;;;7.25;42.07;100177.38;4935311;29;20547;-85
2022/05/07 00:59:31;;;;;;;0.50;0.50;;;;;;;7.22;41.95;100172.41;4935115;29;20066;-86
2022/05/07 01:01:58;;;;;;;0.50;0.50;;;;;;;7.12;41.89;100158.50;4933601;29;20059;-86
2022/05/07 01:04:26;;;;;;;0.50;0.50;;;;;;;7.31;42.01;100189.19;4917035;29;20066;-86
2022/05/07 01:06:53;;;;;;;0.50;0.50;;;;;;;7.17;42.14;100169.47;4916763;29;20397;-86
2022/05/07 01:09:21;;;;;;;0.50;0.50;;;;;;;7.26;41.97;100192.47;4916045;29;20052;-86
2022/05/07 01:11:50;;;;;;;0.45;0.45;;;;;;;7.32;41.82;100193.56;4916139;29;20083;-87
2022/05/07 01:14:18;;;;;;;0.50;0.50;;;;;;;7.36;41.82;100187.56;4916580;29;20048;-86
2022/05/07 01:16:45;;;;;;;0.50;0.50;;;;;;;7.41;41.42;100189.69;4916468;29;20142;-85
2022/05/07 01:19:13;;;;;;;0.50;0.50;;;;;;;7.29;41.79;100164.38;4916280;29;20056;-86
2022/05/07 01:21:41;;;;;;;0.50;0.50;;;;;;;7.36;41.63;100176.00;4886581;29;20054;-86
2022/05/07 01:24:08;;;;;;;0.50;0.50;;;;;;;7.36;41.87;100174.16;4933509;29;20051;-85
2022/05/07 01:26:39;;;;;;;0.50;0.50;;;;;;;7.40;41.50;100187.22;4903258;29;20091;-86
2022/05/07 01:29:07;;;;;;;0.50;0.50;;;;;;;7.40;41.49;100171.09;4903942;29;20051;-87
2022/05/07 01:31:39;;;;;;;0.50;0.50;;;;;;;7.49;41.38;100180.66;4906228;29;20554;-86
2022/05/07 01:34:07;;;;;;;0.50;0.50;;;;;;;7.46;41.58;100173.00;4916038;29;20055;-86
2022/05/07 01:36:38;;;;;;;0.50;0.50;;;;;;;7.49;41.36;100175.28;4916368;29;20275;-85
2022/05/07 01:39:10;;;;;;;0.47;0.47;;;;;;;7.47;41.46;100188.06;4916371;29;20051;-85
2022/05/07 01:41:37;;;;;;;0.50;0.50;;;;;;;7.52;41.50;100180.25;4916137;29;20106;-86
2022/05/07 01:44:06;;;;;;;0.50;0.50;;;;;;;7.34;41.45;100161.94;4900924;29;20044;-86
2022/05/07 01:49:24;;;;;;;0.50;0.50;;;;;;;7.30;41.83;100176.81;4933289;29;20051;-86
2022/05/07 01:51:52;;;;;;;0.50;0.50;;;;;;;7.38;41.74;100187.41;4916564;29;20060;-87
2022/05/07 01:54:19;;;;;;;0.50;0.50;;;;;;;7.26;41.83;100162.09;4917156;29;20447;-87
2022/05/07 01:56:48;;;;;;;0.50;0.50;;;;;;;7.31;41.96;100178.44;4885666;29;20083;-86
2022/05/07 01:59:15;;;;;;;0.50;0.50;;;;;;;7.29;41.94;100177.81;4915954;29;20062;-86
2022/05/07 02:01:43;;;;;;;0.50;0.50;;;;;;;7.31;41.93;100179.28;4884585;29;20043;-87
2022/05/07 02:04:11;;;;;;;0.50;0.50;;;;;;;7.34;41.89;100172.69;4933300;29;20047;-86
2022/05/07 02:06:38;;;;;;;0.40;0.40;;;;;;;7.32;41.76;100178.28;4933680;29;20051;-88
2022/05/07 02:09:09;;;;;;;0.55;0.55;;;;;;;7.26;41.60;100165.59;4900079;29;20051;-87
2022/05/07 02:11:37;;;;;;;0.50;0.50;;;;;;;7.42;41.91;100188.69;4916327;29;20044;-85
2022/05/07 02:14:05;;;;;;;0.50;0.50;;;;;;;7.45;41.73;100182.09;4915976;29;20044;-86
2022/05/07 02:16:33;;;;;;;0.60;0.60;;;;;;;7.43;41.67;100190.31;4900524;29;20051;-85
2022/05/07 02:19:01;;;;;;;0.50;0.50;;;;;;;7.42;42.03;100190.50;4932534;29;20057;-86
2022/05/07 02:21:28;;;;;;;0.50;0.50;;;;;;;7.38;41.81;100179.34;4916937;29;20255;-86
2022/05/07 02:23:56;;;;;;;0.50;0.50;;;;;;;7.50;41.80;100195.75;4935202;29;20119;-85
2022/05/07 02:26:23;;;;;;;0.50;0.50;;;;;;;7.47;41.72;100188.94;4903969;29;20106;-87
2022/05/07 02:28:51;;;;;;;0.50;0.50;;;;;;;7.53;41.72;100201.56;4946379;29;20051;-86
2022/05/07 02:31:20;;;;;;;0.55;0.55;;;;;;;7.44;41.78;100177.72;4924380;29;20542;-86
2022/05/07 02:33:48;;;;;;;0.50;0.50;;;;;;;7.57;41.69;100194.78;4919574;29;20043;-87
2022/05/07 02:36:17;;;;;;;0.60;0.60;;;;;;;7.58;41.73;100198.28;4903908;29;20048;-86
2022/05/07 02:38:48;;;;;;;0.40;0.40;;;;;;;7.58;41.91;100184.88;4936545;29;20055;-87
2022/05/07 02:44:04;;;;;;;0.50;0.50;;;;;;;7.60;41.56;100199.75;4919105;29;20056;-86
2022/05/07 02:46:32;;;;;;;0.50;0.50;;;;;;;7.69;41.48;100195.06;4936248;29;20570;-86
2022/05/07 02:49:00;;;;;;;0.60;0.60;;;;;;;7.66;41.42;100208.88;4919315;29;20048;-85
2022/05/07 02:51:27;;;;;;;0.50;0.50;;;;;;;7.64;41.77;100193.97;4919075;29;20063;-86
2022/05/07 02:53:56;;;;;;;0.60;0.60;;;;;;;7.72;41.82;100200.06;4935827;29;20487;-86
2022/05/07 02:56:23;;;;;;;0.52;0.52;;;;;;;7.63;41.69;100190.47;4887408;29;20071;-86
2022/05/07 02:58:50;;;;;;;0.50;0.50;;;;;;;7.75;41.75;100206.91;4918586;29;20047;-86
2022/05/07 03:01:18;;;;;;;0.50;0.50;;;;;;;7.80;41.72;100204.44;4918934;29;20447;-86
2022/05/07 03:03:45;;;;;;;0.50;0.50;;;;;;;7.79;41.37;100197.38;4935955;29;20048;-87
2022/05/07 03:06:13;;;;;;;0.50;0.50;;;;;;;7.79;41.41;100190.16;4919144;29;20051;-85
2022/05/07 03:08:41;;;;;;;0.55;0.55;;;;;;;7.73;41.14;100182.91;4935938;29;20051;-85
2022/05/07 03:11:08;;;;;;;0.60;0.60;;;;;;;7.79;41.43;100187.47;4919917;29;20047;-86
2022/05/07 03:13:35;;;;;;;0.50;0.50;;;;;;;7.90;41.32;100190.63;4903436;29;20082;-86
2022/05/07 03:16:06;;;;;;;0.50;0.50;;;;;;;7.95;41.14;100196.25;4918631;29;20062;-86
2022/05/07 03:18:35;;;;;;;0.50;0.50;;;;;;;8.04;41.43;100189.69;4936639;29;20083;-85
2022/05/07 03:21:02;;;;;;;0.50;0.50;;;;;;;8.20;41.05;100210.88;4937887;29;20059;-87
2022/05/07 03:23:29;;;;;;;0.60;0.60;;;;;;;8.21;40.92;100207.16;4919833;29;20083;-87
2022/05/07 03:26:05;;;;;;;0.60;0.60;;;;;;;8.28;40.89;100214.41;4919067;29;20052;-87
2022/05/07 03:28:32;;;;;;;0.50;0.50;;;;;;;8.20;41.01;100200.13;4918976;29;20078;-85
2022/05/07 03:31:00;;;;;;;0.60;0.60;;;;;;;8.24;41.14;100204.03;4918922;29;20040;-86
2022/05/07 03:33:30;;;;;;;0.60;0.60;;;;;;;8.30;41.13;100212.34;4917528;29;20083;-87
2022/05/07 03:35:59;;;;;;;0.60;0.60;;;;;;;8.31;41.30;100211.34;4922960;29;20071;-86
2022/05/07 03:38:26;;;;;;;0.50;0.50;;;;;;;8.09;41.18;100186.41;4904492;29;20054;-86
2022/05/07 03:41:04;;;;;;;0.50;0.50;;;;;;;8.19;41.46;100211.06;4920523;29;20051;-86
2022/05/07 03:43:36;;;;;;;0.50;0.50;;;;;;;8.27;41.21;100215.44;4922127;29;20059;-85
2022/05/07 03:46:05;;;;;;;0.50;0.50;;;;;;;8.29;41.13;100213.38;4928568;29;20056;-86
2022/05/07 03:48:32;;;;;;;0.60;0.60;;;;;;;8.24;41.23;100197.84;4937423;29;20050;-87
2022/05/07 03:51:02;;;;;;;0.50;0.50;;;;;;;8.18;41.56;100196.78;4903937;29;20055;-85
2022/05/07 03:53:30;;;;;;;0.50;0.50;;;;;;;8.23;41.45;100197.03;4928512;29;20047;-88
2022/05/07 03:56:08;;;;;;;0.50;0.50;;;;;;;8.29;41.81;100208.84;4917216;29;20063;-86
2022/05/07 03:58:37;;;;;;;0.60;0.60;;;;;;;8.14;42.01;100198.22;4932801;29;20058;-86
2022/05/07 04:01:12;;;;;;;0.60;0.60;;;;;;;8.04;41.90;100179.75;4894102;29;20052;-86
2022/05/07 04:03:39;;;;;;;0.50;0.50;;;;;;;8.05;41.96;100191.31;4940543;29;20055;-86
2022/05/07 04:06:06;;;;;;;0.50;0.50;;;;;;;8.12;41.88;100208.31;4929368;29;20056;-87
2022/05/07 04:08:35;;;;;;;0.50;0.50;;;;;;;8.03;42.18;100198.78;4932007;29;20047;-86
2022/05/07 04:11:05;;;;;;;0.50;0.50;;;;;;;8.04;42.20;100211.19;4931257;29;20055;-85
2022/05/07 04:13:33;;;;;;;0.60;0.60;;;;;;;7.95;42.35;100190.84;4952724;29;20060;-85
2022/05/07 04:16:03;;;;;;;0.60;0.60;;;;;;;8.11;42.45;100206.69;4941256;29;20054;-86
2022/05/07 04:18:45;;;;;;;0.50;0.50;;;;;;;8.33;41.73;100188.59;4922072;29;20070;-87
2022/05/07 04:21:15;;;;;;;0.60;0.60;;;;;;;8.45;41.20;100188.84;4916723;29;20275;-85
2022/05/07 04:23:42;;;;;;;0.60;0.60;;;;;;;8.49;41.37;100191.97;4920657;29;20048;-87
2022/05/07 04:26:10;;;;;;;0.50;0.50;;;;;;;8.72;41.36;100207.78;4902943;29;20423;-86
2022/05/07 04:28:42;;;;;;;0.60;0.60;;;;;;;8.92;41.05;100208.66;4918824;29;20103;-87
2022/05/07 04:31:15;;;;;;;0.60;0.60;;;;;;;9.10;41.00;100206.19;4905910;29;20051;-87
2022/05/07 04:33:50;;;;;;;0.50;0.50;;;;;;;9.17;40.79;100181.16;4919521;29;20058;-87
2022/05/07 04:36:17;;;;;;;0.50;0.50;;;;;;;9.25;40.21;100191.72;4910652;29;20039;-86
2022/05/07 04:38:44;;;;;;;0.50;0.50;;;;;;;9.38;39.97;100183.63;4913253;29;20048;-88
2022/05/07 04:41:43;;;;;;;0.60;0.60;;;;;;;9.59;39.55;100200.59;4933184;29;20498;-88
2022/05/07 04:44:12;;;;;;;0.60;0.60;;;;;;;9.43;39.53;100188.38;4916853;29;20196;-89
2022/05/07 04:46:40;;;;;;;0.50;0.50;;;;;;;9.67;39.50;100194.97;4918486;29;20107;-87
2022/05/07 04:49:09;;;;;;;0.50;0.50;;;;;;;9.79;39.43;100196.00;4932793;29;20079;-88
2022/05/07 04:51:37;;;;;;;0.50;0.50;;;;;;;9.73;39.26;100173.41;4931217;29;20071;-87
2022/05/07 04:54:20;;;;;;;0.50;0.50;;;;;;;9.96;39.49;100191.81;4920196;29;20044;-87
2022/05/07 04:56:50;;;;;;;0.50;0.50;;;;;;;10.20;38.50;100194.84;4902970;29;20047;-86
2022/05/07 04:59:20;;;;;;;0.50;0.50;;;;;;;10.21;38.20;100166.84;4918081;29;20058;-86
2022/05/07 05:01:53;;;;;;;0.50;0.50;;;;;;;10.44;37.90;100160.97;4904201;29;20047;-87
2022/05/07 05:04:22;;;;;;;0.60;0.60;;;;;;;10.71;37.63;100177.00;4918977;29;20055;-86
2022/05/07 05:06:51;;;;;;;0.60;0.60;;;;;;;10.73;37.29;100166.81;4917811;29;20610;-87
2022/05/07 05:09:24;;;;;;;0.50;0.50;;;;;;;11.10;37.39;100181.31;4918147;29;20055;-86
2022/05/07 05:11:57;;;;;;;0.50;0.50;;;;;;;11.44;36.94;100173.75;4918660;29;20058;-88
2022/05/07 05:17:11;;;;;;;0.50;0.50;;;;;;;11.82;35.48;100151.13;4934416;29;20055;-85
2022/05/07 05:19:45;;;;;;;0.50;0.50;;;;;;;11.83;35.41;100179.84;4917835;29;20066;-87
2022/05/07 05:22:16;;;;;;;0.47;0.47;;;;;;;11.71;35.29;100160.84;4917593;29;20047;-85
2022/05/07 05:24:45;;;;;;;0.50;0.50;;;;;;;11.71;35.73;100179.75;4917792;29;20079;-85
2022/05/07 05:27:14;;;;;;;0.50;0.50;;;;;;;11.89;35.26;100181.69;4917471;29;20048;-86
2022/05/07 05:29:47;;;;;;;0.60;0.60;;;;;;;12.13;34.97;100174.56;4918165;29;20051;-86
2022/05/07 05:32:19;;;;;;;0.50;0.50;;;;;;;12.28;34.61;100158.75;4920797;29;20092;-87
2022/05/07 05:34:52;;;;;;;0.55;0.55;;;;;;;12.56;34.13;100173.59;4922248;29;20051;-84
2022/05/07 05:37:27;;;;;;;0.50;0.50;;;;;;;12.74;34.14;100175.44;4917444;29;20066;-86
2022/05/07 05:39:55;;;;;;;0.50;0.50;;;;;;;12.66;33.78;100159.50;4901683;29;20053;-85
2022/05/07 05:42:26;;;;;;;0.50;0.50;;;;;;;12.63;33.74;100176.22;4917353;29;20062;-85
2022/05/07 05:44:53;;;;;;;0.50;0.50;;;;;;;12.63;33.46;100157.25;4932968;29;20051;-87
2022/05/07 05:47:23;;;;;;;0.50;0.50;;;;;;;12.87;33.83;100171.72;4917925;29;20150;-86
2022/05/07 05:49:52;;;;;;;0.50;0.50;;;;;;;12.94;33.78;100173.25;4901606;29;20053;-87
2022/05/07 05:52:29;;;;;;;0.50;0.50;;;;;;;13.18;33.31;100170.59;4917931;29;20143;-87
2022/05/07 05:54:57;;;;;;;0.50;0.50;;;;;;;13.42;33.04;100171.50;4916811;29;20054;-84
2022/05/07 05:57:24;;;;;;;0.50;0.50;;;;;;;13.64;31.83;100174.44;4920646;29;20078;-85
2022/05/07 05:59:51;;;;;;;0.50;0.50;;;;;;;13.80;32.05;100176.44;4921304;29;20051;-84
2022/05/07 06:02:20;;;;;;;0.50;0.50;;;;;;;13.98;31.55;100182.81;4905877;29;20155;-86
2022/05/07 06:04:59;;;;;;;0.50;0.50;;;;;;;14.21;31.36;100171.06;4908913;29;20056;-86
2022/05/07 06:07:30;;;;;;;0.50;0.50;;;;;;;14.09;30.82;100158.34;4906421;29;20459;-84
2022/05/07 06:09:59;;;;;;;0.50;0.50;;;;;;;14.15;30.51;100178.25;4890309;29;20047;-85
2022/05/07 06:12:30;;;;;;;0.50;0.50;;;;;;;14.07;30.84;100174.03;4904126;29;20052;-84
2022/05/07 06:14:58;;;;;;;0.40;0.40;;;;;;;14.03;30.33;100163.91;4919065;29;20134;-85
2022/05/07 06:17:30;;;;;;;0.40;0.40;;;;;;;13.99;30.75;100160.84;4886886;29;20426;-85
2022/05/07 06:19:58;;;;;;;0.50;0.50;;;;;;;14.21;30.83;100160.22;4919289;29;20497;-87
2022/05/07 06:22:29;;;;;;;0.50;0.50;;;;;;;14.63;30.29;100168.94;4907230;29;20480;-87
2022/05/07 06:28:06;;;;;;;0.40;0.40;;;;;;;14.77;30.24;100160.50;4928673;29;20056;-85
2022/05/07 06:30:39;;;;;;;0.43;0.43;;;;;;;14.77;29.88;100169.47;4917709;29;20044;-84
2022/05/07 06:33:10;;;;;;;0.50;0.50;;;;;;;14.87;29.88;100163.41;4903696;29;20051;-85
2022/05/07 06:35:48;;;;;;;0.50;0.50;;;;;;;15.31;28.69;100161.69;4910745;29;20102;-83
2022/05/07 06:38:36;;;;;;;0.50;0.50;;;;;;;15.28;28.69;100164.09;4924589;29;20067;-84
2022/05/07 06:41:06;;;;;;;0.40;0.40;;;;;;;15.17;28.02;100155.78;4911839;29;20658;-84
2022/05/07 06:43:42;;;;;;;0.45;0.45;;;;;;;14.99;28.23;100166.03;4941106;29;20055;-85
2022/05/07 06:46:13;;;;;;;0.40;0.40;;;;;;;15.11;28.15;100159.47;4927262;29;20079;-84
2022/05/07 06:48:58;;;;;;;0.40;0.40;;;;;;;15.06;28.00;100151.22;4910374;29;20075;-85
2022/05/07 06:51:33;;;;;;;0.40;0.40;;;;;;;14.79;28.06;100133.91;4909545;29;20043;-84
2022/05/07 06:54:00;;;;;;;0.40;0.40;;;;;;;14.79;28.46;100147.50;4927552;29;20051;-85
2022/05/07 06:56:27;;;;;;;0.40;0.40;;;;;;;14.88;28.41;100170.47;4930050;29;20138;-85
2022/05/07 06:58:54;;;;;;;0.50;0.50;;;;;;;14.85;28.45;100155.47;4915642;29;20494;-84
2022/05/07 07:01:21;;;;;;;0.40;0.40;;;;;;;15.00;28.64;100157.66;4926783;29;20051;-83
2022/05/07 07:03:48;;;;;;;0.40;0.40;;;;;;;15.06;28.17;100156.66;4909618;29;20056;-84
2022/05/07 07:06:18;;;;;;;0.40;0.40;;;;;;;15.13;28.22;100146.44;4915157;29;20127;-84
2022/05/07 07:08:45;;;;;;;0.50;0.50;;;;;;;15.36;28.71;100148.19;4926245;29;20616;-84
2022/05/07 07:11:12;;;;;;;0.40;0.40;;;;;;;15.71;28.98;100136.22;4911376;29;20498;-84
2022/05/07 07:13:41;;;;;;;0.40;0.40;;;;;;;15.86;27.86;100140.22;4911648;29;20047;-84
2022/05/07 07:16:08;;;;;;;0.47;0.47;;;;;;;15.92;26.77;100148.19;4927352;29;20047;-83
2022/05/07 07:18:35;;;;;;;0.47;0.47;;;;;;;15.82;26.55;100150.78;4931710;29;20087;-84
2022/05/07 07:21:02;;;;;;;0.50;0.50;;;;;;;15.66;26.91;100136.09;4936063;29;20064;-83
2022/05/07 07:23:29;;;;;;;0.50;0.50;;;;;;;15.89;26.99;100156.88;4918398;29;20060;-84
2022/05/07 07:25:57;;;;;;;0.40;0.40;;;;;;;15.84;26.75;100166.88;4919006;29;20051;-84
2022/05/07 07:28:24;;;;;;;0.50;0.50;;;;;;;15.79;26.36;100132.22;4919756;29;20047;-84
2022/05/07 07:30:52;;;;;;;0.40;0.40;;;;;;;15.89;26.40;100143.25;4921352;29;20138;-83
2022/05/07 07:33:19;;;;;;;0.50;0.50;;;;;;;15.78;26.38;100119.72;4936978;29;20061;-84
2022/05/07 07:35:46;;;;;;;0.50;0.50;;;;;;;16.05;26.34;100136.09;4936085;29;20052;-85
2022/05/07 07:38:14;;;;;;;0.50;0.50;;;;;;;16.16;26.42;100121.56;4936182;29;20174;-83
2022/05/07 07:40:44;;;;;;;0.45;0.45;;;;;;;16.25;26.61;100113.75;4919724;29;20192;-84
2022/05/07 07:43:17;;;;;;;0.50;0.50;;;;;;;16.16;25.82;100115.28;4936981;29;20138;-84
2022/05/07 07:48:32;;;;;;;0.50;0.50;;;;;;;16.52;25.52;100118.41;4936281;29;20530;-85
2022/05/07 07:51:00;;;;;;;0.50;0.50;;;;;;;16.82;25.71;100118.75;4936882;29;20064;-84
2022/05/07 07:53:27;;;;;;;0.60;0.60;;;;;;;16.97;25.30;100126.22;4935759;29;20055;-85
2022/05/07 07:55:54;;;;;;;0.30;0.30;;;;;;;16.85;24.52;100129.13;4936122;29;20087;-86
2022/05/07 07:58:22;;;;;;;0.57;0.57;;;;;;;16.64;24.67;100128.06;4918836;29;20055;-84
2022/05/07 08:00:51;;;;;;;0.50;0.50;;;;;;;16.62;24.41;100096.72;4918735;29;20051;-84
2022/05/07 08:03:20;;;;;;;0.50;0.50;;;;;;;16.63;24.92;100120.97;4918710;29;20044;-84
2022/05/07 08:05:51;;;;;;;0.60;0.60;;;;;;;16.93;24.33;100118.81;4919081;29;20078;-84
2022/05/07 08:13:55;;;;;;;0.50;0.50;;;;;;;17.35;23.73;100115.34;4935147;29;20066;-85
2022/05/07 08:16:22;;;;;;;0.60;0.60;;;;;;;17.22;23.94;100108.44;4919072;29;20051;-86
2022/05/07 08:18:50;;;;;;;0.50;0.50;;;;;;;17.32;23.51;100089.41;4934499;29;20118;-85
2022/05/07 08:21:18;;;;;;;0.60;0.60;;;;;;;17.62;23.13;100121.50;4936161;29;20062;-85
2022/05/07 08:23:46;;;;;;;0.60;0.60;;;;;;;17.95;22.87;100114.06;4936855;29;20052;-83
2022/05/07 08:26:14;;;;;;;0.60;0.60;;;;;;;18.32;22.08;100119.41;4938636;29;20111;-84
2022/05/07 08:28:41;;;;;;;0.50;0.50;;;;;;;18.56;21.90;100086.94;4949262;29;20146;-85
2022/05/07 08:31:12;;;;;;;0.50;0.50;;;;;;;18.72;21.83;100104.19;4946348;29;20059;-83
2022/05/07 08:33:43;;;;;;;0.40;0.40;;;;;;;18.32;22.49;100059.28;4938174;29;20084;-84
2022/05/07 08:36:11;;;;;;;0.60;0.60;;;;;;;18.35;21.76;100102.47;4918604;29;20460;-85
2022/05/07 08:38:39;;;;;;;0.50;0.50;;;;;;;18.70;21.60;100103.63;4918345;29;20491;-84
2022/05/07 08:41:06;;;;;;;0.50;0.50;;;;;;;18.73;21.77;100091.34;4934970;29;20062;-84
2022/05/07 08:43:37;;;;;;;0.50;0.50;;;;;;;18.62;21.70;100094.06;4935130;29;20079;-85
2022/05/07 08:46:13;;;;;;;0.50;0.50;;;;;;;18.38;22.76;100115.63;4917811;29;20541;-85
2022/05/07 08:48:42;;;;;;;0.50;0.50;;;;;;;18.27;22.79;100110.38;4934762;29;20054;-84
2022/05/07 08:51:10;;;;;;;0.50;0.50;;;;;;;18.48;21.64;100100.31;4934352;29;20146;-84
2022/05/07 08:53:37;;;;;;;0.50;0.50;;;;;;;18.36;21.79;100101.38;4917707;29;20107;-85
2022/05/07 08:56:05;;;;;;;0.50;0.50;;;;;;;18.32;22.23;100083.06;4901560;29;20051;-84
2022/05/07 08:58:32;;;;;;;0.50;0.50;;;;;;;18.44;22.16;100078.19;4934530;29;20050;-84
2022/05/07 09:01:00;;;;;;;0.50;0.50;;;;;;;18.40;22.40;100077.06;4934113;29;20523;-84
2022/05/07 09:03:38;;;;;;;0.50;0.50;;;;;;;18.58;22.35;100057.44;4918040;29;20058;-84
2022/05/07 09:06:16;;;;;;;0.40;0.40;;;;;;;18.66;22.37;100088.03;4902200;29;20055;-85
2022/05/07 09:08:45;;;;;;;0.60;0.60;;;;;;;18.89;21.82;100071.16;4918904;29;20172;-85
2022/05/07 09:11:14;;;;;;;0.50;0.50;;;;;;;19.26;21.61;100061.78;4903592;29;20043;-85
2022/05/07 09:13:41;;;;;;;0.40;0.40;;;;;;;19.26;21.90;100053.59;4935528;29;20052;-84
2022/05/07 09:16:09;;;;;;;0.50;0.50;;;;;;;19.61;21.91;100040.91;4917559;29;20067;-85
2022/05/07 09:18:36;;;;;;;0.60;0.60;;;;;;;19.76;21.57;100057.31;4934584;29;20074;-85
2022/05/07 09:21:23;;;;;;;0.50;0.50;;;;;;;19.65;21.19;100048.28;4916895;29;20050;-85
2022/05/07 09:24:08;;;;;;;0.50;0.50;;;;;;;20.37;20.82;100061.66;4903921;29;20044;-85
2022/05/07 09:26:43;;;;;;;0.60;0.60;;;;;;;20.65;20.60;100051.91;4917489;29;20058;-85
2022/05/07 09:29:12;;;;;;;0.60;0.60;;;;;;;20.53;20.88;100051.41;4918422;29;20146;-83
2022/05/07 09:31:41;;;;;;;0.40;0.40;;;;;;;20.81;21.00;100052.59;4934113;29;20158;-85
2022/05/07 09:36:56;;;;;;;0.60;0.60;;;;;;;20.88;20.14;100044.03;4935796;29;20339;-85
2022/05/07 09:39:31;;;;;;;0.68;0.68;;;;;;;20.66;19.85;100042.59;4917537;29;20512;-85
2022/05/07 09:41:58;;;;;;;;;;;;;;;21.20;19.65;100037.97;4917631;29;20055;-83
2022/05/07 09:44:28;;;;;;;0.50;0.50;;;;;;;21.11;20.24;100062.47;4933967;29;20432;-84
2022/05/07 09:46:59;;;;;;;0.63;0.63;;;;;;;21.20;19.58;100044.28;4933775;29;20047;-85
2022/05/07 09:49:28;;;;;;;0.40;0.40;;;;;;;20.53;19.98;100045.91;4933777;29;20047;-83
2022/05/07 09:51:55;;;;;;;0.50;0.50;;;;;;;19.96;20.55;100048.19;4916601;29;20051;-84
2022/05/07 10:00:00;;;;;;;0.60;0.60;;;;;;;21.07;19.60;100039.47;4934928;29;20469;-85
2022/05/07 10:03:03;;;;;;;0.50;0.50;;;;;;;20.70;20.18;100040.88;4921715;29;20108;-84
2022/05/07 10:05:52;;;;;;;0.40;0.40;;;;;;;20.50;20.75;100035.53;4940018;29;20051;-85
2022/05/07 10:08:42;;;;;;;0.50;0.50;;;;;;;20.94;20.59;100040.97;4925013;29;20079;-86
2022/05/07 10:11:16;;;;;;;0.60;0.60;;;;;;;20.99;20.28;100037.38;4935521;29;20138;-85
2022/05/07 10:13:55;;;;;;;0.50;0.50;;;;;;;21.64;19.61;100004.00;4917872;29;20067;-85
2022/05/07 10:16:22;;;;;;;0.50;0.50;;;;;;;22.00;19.33;100001.63;4916897;29;20403;-86
2022/05/07 10:18:51;;;;;;;0.70;0.70;;;;;;;21.76;19.38;100026.38;4917062;29;20055;-87
2022/05/07 10:21:21;;;;;;;0.50;0.50;;;;;;;21.83;19.10;100017.78;4934226;29;20110;-85
2022/05/07 10:23:48;;;;;;;0.50;0.50;;;;;;;21.48;19.53;100011.63;4918661;29;20055;-86
2022/05/07 10:26:16;;;;;;;0.30;0.30;;;;;;;21.02;20.03;100014.84;4935760;29;20079;-85
2022/05/07 10:28:43;;;;;;;0.50;0.50;;;;;;;20.65;20.32;99988.81;4934206;29;20055;-85
2022/05/07 10:31:24;;;;;;;0.40;0.40;;;;;;;20.55;20.53;99988.91;4918026;29;20138;-84
2022/05/07 10:33:52;;;;;;;0.60;0.60;;;;;;;21.14;20.44;100009.78;4917260;29;20411;-85
2022/05/07 10:36:20;;;;;;;0.47;0.47;;;;;;;21.24;19.97;100017.06;4933867;29;20079;-85
2022/05/07 10:38:47;;;;;;;0.40;0.40;;;;;;;20.54;20.15;99999.06;4934732;29;20052;-85
2022/05/07 10:41:16;;;;;;;0.40;0.40;;;;;;;20.25;21.03;99995.41;4935957;29;20499;-84
2022/05/07 10:43:56;;;;;;;0.40;0.40;;;;;;;20.31;20.47;100005.25;4937513;29;20055;-85
2022/05/07 10:46:23;;;;;;;0.60;0.60;;;;;;;20.37;20.68;99971.19;4937470;29;20059;-85
2022/05/07 10:48:59;;;;;;;0.40;0.40;;;;;;;20.60;20.91;99985.31;4936988;29;20143;-85
2022/05/07 10:51:33;;;;;;;0.30;0.30;;;;;;;20.11;21.09;99984.28;4936996;29;20051;-85
2022/05/07 10:54:03;;;;;;;0.30;0.30;;;;;;;19.28;21.68;99982.97;4937107;29;20055;-85
2022/05/07 10:56:32;;;;;;;0.40;0.40;;;;;;;19.39;22.13;99995.53;4920742;29;20048;-85
2022/05/07 10:59:01;;;;;;;0.40;0.40;;;;;;;19.66;21.48;99983.38;4936622;29;20058;-86
2022/05/07 11:01:29;;;;;;;0.30;0.30;;;;;;;19.61;21.65;99992.44;4920165;29;20066;-84
2022/05/07 11:04:05;;;;;;;0.40;0.40;;;;;;;19.22;22.06;99981.38;4919845;29;20054;-85
2022/05/07 11:06:33;;;;;;;0.40;0.40;;;;;;;19.35;22.04;99975.31;4936876;29;20075;-85
2022/05/07 11:09:01;;;;;;;0.40;0.40;;;;;;;19.48;22.05;99976.63;4919924;29;20442;-85
2022/05/07 11:11:28;;;;;;;0.30;0.30;;;;;;;19.41;21.97;99965.97;4903850;29;20059;-84
2022/05/07 11:13:56;;;;;;;0.40;0.40;;;;;;;19.32;21.56;99945.75;4936839;29;20126;-85
2022/05/07 11:16:24;;;;;;;0.40;0.40;;;;;;;19.72;21.69;99971.31;4937081;29;20047;-84
2022/05/07 11:18:54;;;;;;;0.40;0.40;;;;;;;19.70;21.77;99938.78;4937708;29;20511;-85
2022/05/07 11:21:24;;;;;;;0.40;0.40;;;;;;;19.56;21.83;99951.41;4936316;29;20119;-84
2022/05/07 11:23:56;;;;;;;0.40;0.40;;;;;;;19.53;21.77;99965.66;4919651;29;20078;-84
2022/05/07 11:26:24;;;;;;;0.40;0.40;;;;;;;19.79;21.39;99949.94;4903789;29;20062;-85
2022/05/07 11:28:52;;;;;;;0.40;0.40;;;;;;;19.86;21.21;99964.16;4921176;29;20518;-85
2022/05/07 11:31:30;;;;;;;0.30;0.30;;;;;;;19.38;21.79;99944.63;4920201;29;20399;-84
2022/05/07 11:34:01;;;;;;;0.40;0.40;;;;;;;18.91;22.65;99954.06;4936208;29;20091;-86
2022/05/07 11:36:29;;;;;;;0.40;0.40;;;;;;;18.77;22.48;99934.69;4936296;29;20504;-84
2022/05/07 11:38:57;;;;;;;0.40;0.40;;;;;;;18.88;22.41;99949.16;4936285;29;20075;-85
2022/05/07 11:41:24;;;;;;;0.30;0.30;;;;;;;18.95;22.34;99935.19;4903680;29;20510;-86
2022/05/07 11:47:21;;;;;;;0.40;0.40;;;;;;;19.40;21.65;99925.19;4936064;29;20519;-84
2022/05/07 11:50:07;;;;;;;0.35;0.35;;;;;;;19.39;21.41;99924.34;4918816;29;20064;-85
2022/05/07 11:52:35;;;;;;;0.40;0.40;;;;;;;19.66;21.32;99925.88;4937299;29;20048;-85
2022/05/07 11:55:05;;;;;;;0.35;0.35;;;;;;;19.62;21.40;99922.06;4935026;29;20055;-85
2022/05/07 11:57:35;;;;;;;0.40;0.40;;;;;;;19.58;21.81;99919.09;4905197;29;20047;-85
2022/05/07 12:00:21;;;;;;;0.75;0.75;;;;;;;19.99;21.22;99915.31;4936883;29;20608;-84
2022/05/07 12:02:49;;;;;;;0.80;0.80;;;;;;;22.04;19.47;99909.19;4937897;29;20471;-85
2022/05/07 12:05:17;;;;;;;0.70;0.70;;;;;;;23.06;18.47;99890.13;4937077;29;20135;-84
2022/05/07 12:07:48;;;;;;;0.80;0.80;;;;;;;23.28;17.91;99911.44;4920583;29;20119;-85
2022/05/07 12:10:20;;;;;;;0.70;0.70;;;;;;;23.05;17.87;99905.00;4904390;29;20051;-85
2022/05/07 12:12:48;;;;;;;0.80;0.80;;;;;;;23.39;17.79;99911.22;4934591;29;20077;-86
2022/05/07 12:15:16;;;;;;;0.70;0.70;;;;;;;23.85;17.33;99913.81;4937868;29;20051;-83
2022/05/07 12:17:52;;;;;;;0.70;0.70;;;;;;;23.42;17.47;99907.84;4939646;29;20439;-84